Time;durP1;ratioP1;P1;durP2;ratioP2;P2;SDS_P1;SDS_P2;PMS_P1;PMS_P2;Temp;Humidity;BMP_temperature;BMP_pressure;BME280_temperature;BME280_humidity;BME280_pressure;Samples;Min_cycle;Max_cycle;Signal;HPM_P1;HPM_P2
2021/09/25 00:00:55;;;;;;;2.53;0.90;;;21.10;47.90;;;;;;5011547;28;20018;-74
2021/09/25 00:03:23;;;;;;;3.17;1.40;;;21.20;49.20;;;;;;4993530;28;20030;-73
2021/09/25 00:05:50;;;;;;;5.53;1.23;;;21.30;50.10;;;;;;5011193;28;20495;-73
2021/09/25 00:08:17;;;;;;;1.98;1.13;;;21.30;48.80;;;;;;5011228;28;20032;-72
2021/09/25 00:10:45;;;;;;;2.95;1.15;;;21.30;50.10;;;;;;5011501;28;20117;-73
2021/09/25 00:13:12;;;;;;;1.17;0.90;;;21.40;48.80;;;;;;5011208;28;20025;-74
2021/09/25 00:15:40;;;;;;;2.50;0.88;;;21.40;49.60;;;;;;5011852;28;20026;-72
2021/09/25 00:18:08;;;;;;;2.47;1.08;;;21.40;50.10;;;;;;5011123;28;20105;-70
2021/09/25 00:20:37;;;;;;;2.67;0.82;;;21.50;51.30;;;;;;5009677;28;20054;-69
2021/09/25 00:23:05;;;;;;;4.40;1.30;;;21.50;49.80;;;;;;5010871;28;20105;-73
2021/09/25 00:25:33;;;;;;;2.20;1.15;;;21.60;48.30;;;;;;5011493;28;20533;-72
2021/09/25 00:28:00;;;;;;;2.72;1.33;;;21.60;49.30;;;;;;5010584;28;20107;-73
2021/09/25 00:30:28;;;;;;;3.67;1.27;;;21.60;50.00;;;;;;4993801;28;20025;-70
2021/09/25 00:32:56;;;;;;;2.75;1.50;;;21.70;50.60;;;;;;4993727;28;20026;-69
2021/09/25 00:35:23;;;;;;;4.72;1.50;;;21.60;51.00;;;;;;5010513;28;20510;-73
2021/09/25 00:37:50;;;;;;;4.20;1.45;;;21.70;50.10;;;;;;5011342;28;20415;-73
2021/09/25 00:40:18;;;;;;;3.08;1.45;;;21.60;51.30;;;;;;5010988;28;20377;-74
2021/09/25 00:42:46;;;;;;;1.95;0.93;;;21.60;51.30;;;;;;5012490;28;20022;-72
2021/09/25 00:45:18;;;;;;;4.60;1.20;;;21.60;51.30;;;;;;5011944;28;20029;-72
2021/09/25 00:47:46;;;;;;;6.50;1.67;;;21.50;51.70;;;;;;5012348;28;20105;-68
2021/09/25 00:50:14;;;;;;;2.90;1.25;;;21.60;52.30;;;;;;5012459;28;20042;-75
2021/09/25 00:52:41;;;;;;;3.00;1.17;;;21.60;51.60;;;;;;5012943;28;20524;-74
2021/09/25 00:55:09;;;;;;;1.98;0.93;;;21.60;51.70;;;;;;4993370;28;20071;-72
2021/09/25 00:57:37;;;;;;;3.63;1.40;;;21.60;52.00;;;;;;5011621;28;20392;-71
2021/09/25 01:00:07;;;;;;;2.50;1.17;;;21.60;52.20;;;;;;5011232;28;20036;-67
2021/09/25 01:02:36;;;;;;;3.22;1.50;;;21.60;52.00;;;;;;5010667;28;20064;-69
2021/09/25 01:05:04;;;;;;;4.85;2.10;;;21.70;52.00;;;;;;5010798;28;20075;-68
2021/09/25 01:07:32;;;;;;;3.88;1.40;;;21.70;53.00;;;;;;5010377;28;20032;-68
2021/09/25 01:09:59;;;;;;;7.15;1.85;;;21.80;51.90;;;;;;5010645;28;20045;-71
2021/09/25 01:12:27;;;;;;;7.20;1.73;;;21.80;52.40;;;;;;5011409;28;20403;-72
2021/09/25 01:14:54;;;;;;;3.95;1.65;;;21.80;52.40;;;;;;5010723;28;20022;-72
2021/09/25 01:17:22;;;;;;;3.05;1.42;;;21.90;52.40;;;;;;5009561;28;20033;-60
2021/09/25 01:19:49;;;;;;;3.97;1.42;;;21.80;52.30;;;;;;5010179;28;20071;-70
2021/09/25 01:22:16;;;;;;;4.13;1.80;;;21.80;52.30;;;;;;4996052;28;20057;-73
2021/09/25 01:24:44;;;;;;;6.68;1.88;;;21.80;52.80;;;;;;4993978;28;20117;-74
2021/09/25 01:27:12;;;;;;;6.22;2.05;;;21.80;53.30;;;;;;5011279;28;20033;-70
2021/09/25 01:29:39;;;;;;;5.80;1.85;;;21.90;53.10;;;;;;5013331;28;20033;-72
2021/09/25 01:32:07;;;;;;;5.45;2.03;;;21.90;53.70;;;;;;5014181;28;20034;-71
2021/09/25 01:34:36;;;;;;;8.32;2.22;;;21.90;53.80;;;;;;5014464;28;20384;-73
2021/09/25 01:37:04;;;;;;;9.38;2.10;;;21.90;54.80;;;;;;5014654;28;20030;-74
2021/09/25 01:39:35;;;;;;;5.63;2.15;;;22.00;54.00;;;;;;5014239;28;20030;-72
2021/09/25 01:42:05;;;;;;;8.20;2.60;;;21.90;53.50;;;;;;4996892;28;20018;-74
2021/09/25 01:44:32;;;;;;;7.30;2.03;;;21.90;54.10;;;;;;4996458;28;20024;-72
2021/09/25 01:47:01;;;;;;;5.03;1.90;;;21.90;53.10;;;;;;5013798;28;20021;-68
2021/09/25 01:49:28;;;;;;;4.85;1.63;;;21.90;53.70;;;;;;4996354;28;20119;-72
2021/09/25 01:51:56;;;;;;;4.05;1.92;;;21.90;53.50;;;;;;5014027;28;20042;-72
2021/09/25 01:54:23;;;;;;;8.77;2.47;;;21.90;53.90;;;;;;5013197;28;20349;-72
2021/09/25 01:56:51;;;;;;;7.95;2.22;;;21.90;53.80;;;;;;5013362;28;20095;-71
2021/09/25 01:59:18;;;;;;;8.48;2.45;;;21.90;54.60;;;;;;5012777;28;20472;-70
2021/09/25 02:01:45;;;;;;;8.85;2.58;;;21.90;54.50;;;;;;5013194;28;20038;-67
2021/09/25 02:04:13;;;;;;;6.85;2.40;;;21.90;54.40;;;;;;4995278;28;20028;-72
2021/09/25 02:06:40;;;;;;;9.05;2.85;;;21.90;54.20;;;;;;4995527;28;20444;-73
2021/09/25 02:09:07;;;;;;;8.10;2.47;;;21.90;54.30;;;;;;5012526;28;20384;-67
2021/09/25 02:11:35;;;;;;;5.75;2.28;;;21.90;54.90;;;;;;5013531;28;20022;-71
2021/09/25 02:14:02;;;;;;;7.97;2.40;;;21.90;55.00;;;;;;5013077;28;20452;-73
2021/09/25 02:16:30;;;;;;;8.00;2.75;;;21.80;54.80;;;;;;5013825;28;20029;-68
2021/09/25 02:18:57;;;;;;;9.30;2.80;;;21.90;54.50;;;;;;5012999;28;20037;-74
2021/09/25 02:21:24;;;;;;;7.88;2.30;;;21.80;55.60;;;;;;5013347;28;20486;-68
2021/09/25 02:23:52;;;;;;;9.13;2.80;;;21.90;55.80;;;;;;4995162;28;20102;-73
2021/09/25 02:26:19;;;;;;;10.77;2.38;;;21.90;55.30;;;;;;5012703;28;20029;-73
2021/09/25 02:28:47;;;;;;;8.85;2.65;;;21.90;56.10;;;;;;4995171;28;20492;-72
2021/09/25 02:31:19;;;;;;;8.23;2.35;;;21.90;56.60;;;;;;5012694;28;20053;-72
2021/09/25 02:33:48;;;;;;;10.60;2.90;;;21.90;55.40;;;;;;5013141;28;20032;-70
2021/09/25 02:36:15;;;;;;;8.95;2.47;;;21.90;55.80;;;;;;5012131;28;20022;-70
2021/09/25 02:38:43;;;;;;;9.57;2.65;;;21.90;55.80;;;;;;5012638;28;20079;-71
2021/09/25 02:41:10;;;;;;;10.05;2.97;;;21.90;56.70;;;;;;5012563;28;20109;-70
2021/09/25 02:43:37;;;;;;;9.38;2.92;;;21.90;56.20;;;;;;5012327;28;20037;-72
2021/09/25 02:46:05;;;;;;;7.65;2.58;;;21.90;56.30;;;;;;5013019;28;20036;-70
2021/09/25 02:48:32;;;;;;;8.30;2.40;;;21.90;56.00;;;;;;5012579;28;20022;-68
2021/09/25 02:50:59;;;;;;;7.35;2.78;;;21.90;56.40;;;;;;5012954;28;20053;-66
2021/09/25 02:53:27;;;;;;;8.00;2.42;;;21.90;55.90;;;;;;5012929;28;20113;-72
2021/09/25 02:55:54;;;;;;;8.95;2.45;;;21.90;56.50;;;;;;5013650;28;20025;-64
2021/09/25 02:58:22;;;;;;;11.57;3.13;;;21.90;56.50;;;;;;5012388;28;20098;-64
2021/09/25 03:00:49;;;;;;;6.45;2.40;;;21.90;56.60;;;;;;5012194;28;20025;-63
2021/09/25 03:03:18;;;;;;;9.27;3.55;;;22.00;56.20;;;;;;5001901;28;20093;-70
2021/09/25 03:05:45;;;;;;;6.75;2.80;;;22.00;56.40;;;;;;5008605;28;20113;-64
2021/09/25 03:08:12;;;;;;;8.73;2.88;;;22.00;56.70;;;;;;5009071;28;20026;-63
2021/09/25 03:10:40;;;;;;;7.32;2.63;;;22.00;56.60;;;;;;5008780;28;20018;-66
2021/09/25 03:13:10;;;;;;;10.98;2.63;;;21.90;56.50;;;;;;5008904;28;20384;-66
2021/09/25 03:15:38;;;;;;;10.32;3.35;;;21.90;57.10;;;;;;5006784;28;20101;-65
2021/09/25 03:18:05;;;;;;;10.88;3.92;;;21.90;57.30;;;;;;5011239;28;20449;-68
2021/09/25 03:20:33;;;;;;;11.27;2.90;;;21.90;57.20;;;;;;5011306;28;20026;-68
2021/09/25 03:23:00;;;;;;;7.60;2.92;;;21.80;57.40;;;;;;5011343;28;20483;-67
2021/09/25 03:25:27;;;;;;;10.98;3.28;;;21.80;57.60;;;;;;5011363;28;20067;-67
2021/09/25 03:27:55;;;;;;;12.77;2.60;;;21.80;57.70;;;;;;5011976;28;20117;-69
2021/09/25 03:30:23;;;;;;;10.13;2.92;;;21.80;57.70;;;;;;5011701;28;20026;-68
2021/09/25 03:32:50;;;;;;;14.77;3.17;;;21.80;57.80;;;;;;4994489;28;20499;-67
2021/09/25 03:35:17;;;;;;;10.95;2.50;;;21.80;58.00;;;;;;5011581;28;20029;-68
2021/09/25 03:37:45;;;;;;;10.07;2.58;;;21.90;57.80;;;;;;5011520;28;20045;-71
2021/09/25 03:40:13;;;;;;;9.60;3.05;;;21.80;57.70;;;;;;5010997;28;20321;-68
2021/09/25 03:42:40;;;;;;;7.07;2.70;;;21.80;57.90;;;;;;5010518;28;20022;-67
2021/09/25 03:45:08;;;;;;;8.15;2.60;;;21.80;57.90;;;;;;4993667;28;20421;-67
2021/09/25 03:47:36;;;;;;;6.55;3.33;;;21.80;57.90;;;;;;5011047;28;20029;-69
2021/09/25 03:50:06;;;;;;;7.68;2.55;;;21.80;57.80;;;;;;5010724;28;20057;-69
2021/09/25 03:52:34;;;;;;;10.38;2.35;;;21.80;58.00;;;;;;5011091;28;20376;-69
2021/09/25 03:55:01;;;;;;;5.88;2.92;;;21.80;58.10;;;;;;4993628;28;20472;-68
2021/09/25 03:57:29;;;;;;;9.55;3.50;;;21.80;58.20;;;;;;5010434;28;20404;-68
2021/09/25 03:59:59;;;;;;;9.48;3.28;;;21.70;58.40;;;;;;5010796;28;20075;-69
2021/09/25 04:02:26;;;;;;;9.52;3.08;;;21.80;58.50;;;;;;5010281;28;20370;-66
2021/09/25 04:04:54;;;;;;;12.00;3.50;;;21.70;58.40;;;;;;5010815;28;20026;-67
2021/09/25 04:07:21;;;;;;;7.18;2.90;;;21.70;58.50;;;;;;5010432;28;20033;-68
2021/09/25 04:09:49;;;;;;;9.93;2.72;;;21.70;58.50;;;;;;5010477;28;20038;-69
2021/09/25 04:12:16;;;;;;;10.45;3.08;;;21.70;58.50;;;;;;5010789;28;20036;-68
2021/09/25 04:14:43;;;;;;;10.10;3.05;;;21.60;58.60;;;;;;5010666;28;20075;-70
2021/09/25 04:17:11;;;;;;;6.90;2.30;;;21.60;58.70;;;;;;5010076;28;20460;-70
2021/09/25 04:19:38;;;;;;;9.10;3.08;;;21.60;59.00;;;;;;5010951;28;20101;-69
2021/09/25 04:22:06;;;;;;;8.52;2.70;;;21.50;59.10;;;;;;5010108;28;20026;-71
2021/09/25 04:24:33;;;;;;;4.25;2.15;;;21.50;59.30;;;;;;5010521;28;20026;-69
2021/09/25 04:27:01;;;;;;;6.82;2.42;;;21.50;59.40;;;;;;5010616;28;20107;-68
2021/09/25 04:29:28;;;;;;;9.80;3.15;;;21.40;59.50;;;;;;5010471;28;20025;-69
2021/09/25 04:31:56;;;;;;;7.72;2.63;;;21.40;59.60;;;;;;5010245;28;20498;-70
2021/09/25 04:34:24;;;;;;;7.88;2.97;;;21.40;59.80;;;;;;5010090;28;20113;-67
2021/09/25 04:36:51;;;;;;;8.02;2.97;;;21.40;59.90;;;;;;5009762;28;20026;-68
2021/09/25 04:39:18;;;;;;;9.80;2.92;;;21.30;60.00;;;;;;5009929;28;20029;-67
2021/09/25 04:41:46;;;;;;;9.85;2.97;;;21.30;60.20;;;;;;5010548;28;20531;-69
2021/09/25 04:44:17;;;;;;;9.13;2.47;;;21.30;60.10;;;;;;4993638;28;20121;-69
2021/09/25 04:46:45;;;;;;;8.27;2.80;;;21.30;60.20;;;;;;5010557;28;20424;-68
2021/09/25 04:49:15;;;;;;;11.55;3.40;;;21.20;60.30;;;;;;5010136;28;20026;-69
2021/09/25 04:51:43;;;;;;;11.10;2.92;;;21.20;60.30;;;;;;5010198;28;20054;-70
2021/09/25 04:54:10;;;;;;;8.00;2.75;;;21.10;60.20;;;;;;5010001;28;20468;-69
2021/09/25 04:56:37;;;;;;;8.85;3.00;;;21.10;60.40;;;;;;5002574;28;20831;-69
2021/09/25 04:59:06;;;;;;;13.48;4.63;;;21.00;60.50;;;;;;5007214;28;20038;-71
2021/09/25 05:01:34;;;;;;;18.70;6.55;;;21.00;60.80;;;;;;5006933;28;20026;-69
2021/09/25 05:04:03;;;;;;;22.20;8.63;;;21.00;61.10;;;;;;5007468;28;20044;-71
2021/09/25 05:06:31;;;;;;;18.92;9.65;;;21.00;61.30;;;;;;4990047;28;20110;-73
2021/09/25 05:08:59;;;;;;;19.30;10.38;;;20.90;61.30;;;;;;5007276;28;21179;-72
2021/09/25 05:11:26;;;;;;;23.65;10.13;;;20.90;61.30;;;;;;5007059;28;20038;-69
2021/09/25 05:13:54;;;;;;;25.23;10.85;;;20.90;61.30;;;;;;5007251;28;20021;-68
2021/09/25 05:16:22;;;;;;;28.42;13.05;;;20.90;61.30;;;;;;5005489;28;20076;-71
2021/09/25 05:18:49;;;;;;;29.65;13.77;;;20.90;61.40;;;;;;5007847;28;20034;-73
2021/09/25 05:21:17;;;;;;;30.10;12.90;;;20.90;61.90;;;;;;5009719;28;20067;-70
2021/09/25 05:23:49;;;;;;;26.08;13.02;;;20.90;61.50;;;;;;5009721;28;20087;-66
2021/09/25 05:26:16;;;;;;;26.23;11.57;;;20.90;61.50;;;;;;5010349;28;20075;-70
2021/09/25 05:28:50;;;;;;;23.45;11.82;;;20.80;61.50;;;;;;4992861;28;20030;-66
2021/09/25 05:31:18;;;;;;;22.85;10.90;;;20.80;61.50;;;;;;5010093;28;20022;-69
2021/09/25 05:33:46;;;;;;;20.58;7.80;;;20.80;61.50;;;;;;5005777;28;20373;-52
2021/09/25 05:36:13;;;;;;;16.13;9.45;;;20.70;61.00;;;;;;5009192;28;20121;-59
2021/09/25 05:38:56;;;;;;;22.20;9.77;;;20.60;61.00;;;;;;5009499;28;20029;-53
2021/09/25 05:41:23;;;;;;;20.42;8.73;;;20.50;61.60;;;;;;5008564;28;20090;-57
2021/09/25 05:43:53;;;;;;;22.65;9.00;;;20.50;61.20;;;;;;4991566;28;20079;-58
2021/09/25 05:46:21;;;;;;;25.65;8.40;;;20.30;62.10;;;;;;5008540;28;20066;-57
2021/09/25 05:48:55;;;;;;;18.58;8.55;;;20.20;61.90;;;;;;5008855;28;20034;-51
2021/09/25 05:51:23;;;;;;;17.58;7.20;;;20.10;62.30;;;;;;5008112;28;20057;-55
2021/09/25 05:53:50;;;;;;;16.35;7.70;;;20.00;62.60;;;;;;5006624;28;20037;-58
2021/09/25 05:56:17;;;;;;;16.60;6.97;;;19.90;63.00;;;;;;5008575;28;20026;-59
2021/09/25 05:58:45;;;;;;;16.67;6.07;;;19.80;63.00;;;;;;5009287;28;20038;-58
2021/09/25 06:01:12;;;;;;;12.38;6.00;;;19.90;62.40;;;;;;5009567;28;20022;-66
2021/09/25 06:03:40;;;;;;;12.75;5.07;;;19.90;62.90;;;;;;5008694;28;20056;-66
2021/09/25 06:06:07;;;;;;;11.70;5.13;;;19.90;62.60;;;;;;5009292;28;20022;-66
2021/09/25 06:08:35;;;;;;;13.57;5.90;;;20.00;62.40;;;;;;4991465;28;20381;-65
2021/09/25 06:11:08;;;;;;;11.38;4.78;;;20.00;62.30;;;;;;5008927;28;20034;-68
2021/09/25 06:13:37;;;;;;;12.82;4.68;;;20.10;62.60;;;;;;4992290;28;20041;-65
2021/09/25 06:16:08;;;;;;;11.15;5.38;;;20.00;62.30;;;;;;4991686;28;20079;-66
2021/09/25 06:18:35;;;;;;;11.38;5.10;;;20.10;63.00;;;;;;5011629;28;20082;-66
2021/09/25 06:21:03;;;;;;;12.88;5.03;;;20.10;62.60;;;;;;5012039;28;20026;-66
2021/09/25 06:23:30;;;;;;;11.85;4.50;;;20.10;62.50;;;;;;5012293;28;20026;-66
2021/09/25 06:25:58;;;;;;;9.18;4.68;;;20.10;62.40;;;;;;5012298;28;20025;-67
2021/09/25 06:28:29;;;;;;;15.13;4.72;;;20.10;62.60;;;;;;5012045;28;20025;-55
2021/09/25 06:30:57;;;;;;;8.55;3.30;;;20.10;62.20;;;;;;5012028;28;20022;-56
2021/09/25 06:33:24;;;;;;;14.15;5.90;;;20.10;63.20;;;;;;5011490;28;20029;-54
2021/09/25 06:35:53;;;;;;;11.88;6.22;;;20.10;64.40;;;;;;5012431;28;20034;-57
2021/09/25 06:38:21;;;;;;;14.40;6.88;;;20.10;62.60;;;;;;5012136;28;20044;-54
2021/09/25 06:40:48;;;;;;;14.38;6.53;;;20.00;62.50;;;;;;5012127;28;20058;-58
2021/09/25 06:43:16;;;;;;;17.65;9.60;;;20.00;63.20;;;;;;5012303;28;20030;-56
2021/09/25 06:45:44;;;;;;;15.25;9.65;;;20.00;62.70;;;;;;5012508;28;20482;-68
2021/09/25 06:48:11;;;;;;;16.27;8.35;;;19.90;63.50;;;;;;4994713;28;20354;-69
2021/09/25 06:50:39;;;;;;;10.10;6.65;;;20.00;63.40;;;;;;5012082;28;20416;-69
2021/09/25 06:53:06;;;;;;;15.38;8.75;;;20.00;62.90;;;;;;5012388;28;20426;-69
2021/09/25 06:55:34;;;;;;;16.58;11.25;;;20.00;62.90;;;;;;5012375;28;20026;-67
2021/09/25 06:58:01;;;;;;;14.45;11.77;;;20.00;63.20;;;;;;5012304;28;20142;-68
2021/09/25 07:00:28;;;;;;;15.10;10.32;;;20.00;62.90;;;;;;5012336;28;20022;-67
2021/09/25 07:02:56;;;;;;;30.83;27.67;;;20.00;64.00;;;;;;5011980;28;20022;-70
2021/09/25 07:05:23;;;;;;;38.03;34.47;;;20.00;63.00;;;;;;5012355;28;20393;-67
2021/09/25 07:07:51;;;;;;;35.92;32.30;;;20.00;63.50;;;;;;5012214;28;20357;-68
2021/09/25 07:10:19;;;;;;;33.35;29.85;;;20.00;63.40;;;;;;5012114;28;20037;-66
2021/09/25 07:12:47;;;;;;;19.52;12.20;;;20.00;63.60;;;;;;5012340;28;20030;-68
2021/09/25 07:15:15;;;;;;;15.80;10.00;;;20.00;64.30;;;;;;5012081;28;20487;-71
2021/09/25 07:17:42;;;;;;;21.42;19.05;;;20.00;64.60;;;;;;4994415;28;20041;-68
2021/09/25 07:20:10;;;;;;;63.13;56.28;;;20.00;64.10;;;;;;4986557;28;21235;-70
2021/09/25 07:22:38;;;;;;;20.85;18.65;;;20.00;64.10;;;;;;5009084;28;20026;-71
2021/09/25 07:25:05;;;;;;;19.48;15.60;;;20.00;66.60;;;;;;5008471;28;20014;-70
2021/09/25 07:27:33;;;;;;;19.98;12.25;;;19.90;66.30;;;;;;4991046;28;20163;-71
2021/09/25 07:30:00;;;;;;;21.80;14.00;;;19.90;65.90;;;;;;5009518;28;20022;-75
2021/09/25 07:32:28;;;;;;;16.80;12.07;;;19.90;65.80;;;;;;5009124;28;20542;-71
2021/09/25 07:34:55;;;;;;;18.00;10.95;;;19.90;65.60;;;;;;5006470;28;20444;-72
2021/09/25 07:37:22;;;;;;;20.45;10.85;;;19.80;65.60;;;;;;5006549;28;20045;-71
2021/09/25 07:39:52;;;;;;;19.02;9.77;;;19.80;65.50;;;;;;5008714;28;20032;-68
2021/09/25 07:42:24;;;;;;;16.55;9.02;;;19.80;65.90;;;;;;5007771;28;20025;-64
2021/09/25 07:44:52;;;;;;;17.13;8.32;;;19.80;65.90;;;;;;5007370;28;20079;-69
2021/09/25 07:47:20;;;;;;;13.95;8.48;;;19.80;65.80;;;;;;5005709;28;20026;-69
2021/09/25 07:49:47;;;;;;;16.55;9.13;;;19.80;66.00;;;;;;5008948;28;20054;-71
2021/09/25 07:52:18;;;;;;;12.05;8.75;;;19.80;66.10;;;;;;5007107;28;20030;-65
2021/09/25 07:54:45;;;;;;;13.68;8.18;;;19.70;65.90;;;;;;5008859;28;20060;-64
2021/09/25 07:57:13;;;;;;;12.45;7.35;;;19.70;65.90;;;;;;4986632;28;20042;-63
2021/09/25 07:59:41;;;;;;;13.05;7.47;;;19.70;65.80;;;;;;4990358;28;20518;-71
2021/09/25 08:02:10;;;;;;;12.75;7.22;;;19.70;65.70;;;;;;5006336;28;20622;-69
2021/09/25 08:04:37;;;;;;;12.57;7.07;;;19.70;65.80;;;;;;5006192;28;20444;-70
2021/09/25 08:07:05;;;;;;;14.52;7.20;;;19.70;65.70;;;;;;4986917;28;20067;-70
2021/09/25 08:09:33;;;;;;;11.80;6.85;;;19.70;65.60;;;;;;5008253;28;20549;-70
2021/09/25 08:12:00;;;;;;;13.07;6.75;;;19.70;65.70;;;;;;4990367;28;20049;-65
2021/09/25 08:14:28;;;;;;;12.93;7.30;;;19.60;65.60;;;;;;5007931;28;20026;-68
2021/09/25 08:16:55;;;;;;;10.48;6.18;;;19.60;65.70;;;;;;5003955;28;20112;-64
2021/09/25 08:19:23;;;;;;;14.77;6.57;;;19.60;65.70;;;;;;5008505;28;20503;-67
2021/09/25 08:21:50;;;;;;;12.13;6.20;;;19.60;65.80;;;;;;5001290;28;20071;-66
2021/09/25 08:24:18;;;;;;;11.57;6.38;;;19.50;65.80;;;;;;4977668;28;20433;-70
2021/09/25 08:26:54;;;;;;;12.25;5.78;;;19.50;65.90;;;;;;4992504;28;20092;-66
2021/09/25 08:29:21;;;;;;;12.23;6.68;;;19.50;65.80;;;;;;4980626;28;20030;-65
2021/09/25 08:31:49;;;;;;;10.85;5.85;;;19.40;65.70;;;;;;4997144;28;20037;-64
2021/09/25 08:34:18;;;;;;;9.52;5.15;;;19.40;65.80;;;;;;4996054;28;20140;-67
2021/09/25 08:36:46;;;;;;;9.85;5.30;;;19.40;65.70;;;;;;4992099;28;20037;-68
2021/09/25 08:39:17;;;;;;;8.85;5.50;;;19.40;65.60;;;;;;4998086;28;20055;-67
2021/09/25 08:41:45;;;;;;;13.18;5.28;;;19.40;65.60;;;;;;4994976;28;20034;-71
2021/09/25 08:44:13;;;;;;;12.32;5.97;;;19.30;65.50;;;;;;4980037;28;20030;-66
2021/09/25 08:46:40;;;;;;;10.23;4.90;;;19.30;65.50;;;;;;4993051;28;20030;-67
2021/09/25 08:49:09;;;;;;;11.50;5.22;;;19.30;65.40;;;;;;4976191;28;20113;-71
2021/09/25 08:51:37;;;;;;;9.82;5.53;;;19.30;65.50;;;;;;4993926;28;20420;-64
2021/09/25 08:54:06;;;;;;;11.65;5.22;;;19.20;65.40;;;;;;4998065;28;20034;-63
2021/09/25 08:56:33;;;;;;;8.88;4.38;;;19.20;65.50;;;;;;4989077;28;20120;-72
2021/09/25 08:59:01;;;;;;;8.48;4.20;;;19.20;65.40;;;;;;4991476;28;20120;-64
2021/09/25 09:01:30;;;;;;;9.60;4.80;;;19.10;65.90;;;;;;4996024;28;20038;-63
2021/09/25 09:03:58;;;;;;;9.95;4.90;;;19.10;65.20;;;;;;4994464;28;20033;-68
2021/09/25 09:06:38;;;;;;;10.65;5.15;;;19.10;65.10;;;;;;4986136;28;20083;-66
2021/09/25 09:09:10;;;;;;;11.88;4.85;;;19.10;65.00;;;;;;4991488;28;20049;-68
2021/09/25 09:11:49;;;;;;;8.35;4.35;;;19.20;65.00;;;;;;4994434;28;20041;-73
2021/09/25 09:14:17;;;;;;;8.75;4.07;;;19.10;64.90;;;;;;4994823;28;20029;-70
2021/09/25 09:17:05;;;;;;;9.50;4.00;;;19.10;64.90;;;;;;4987970;28;20049;-61
2021/09/25 09:19:37;;;;;;;9.02;4.53;;;19.10;64.70;;;;;;4995504;28;20056;-65
2021/09/25 09:22:06;;;;;;;9.30;4.20;;;19.10;64.60;;;;;;4994024;28;20412;-68
2021/09/25 09:25:05;;;;;;;9.98;4.25;;;19.10;64.60;;;;;;4996141;28;20073;-66
2021/09/25 09:27:33;;;;;;;9.57;4.20;;;19.10;64.40;;;;;;4990469;28;20066;-67
2021/09/25 09:30:14;;;;;;;5.90;3.65;;;19.10;64.40;;;;;;4997317;28;20036;-70
2021/09/25 09:32:45;;;;;;;8.70;3.95;;;19.10;64.50;;;;;;4996610;28;20042;-65
2021/09/25 09:35:20;;;;;;;8.52;3.60;;;19.10;64.40;;;;;;4976121;28;20055;-62
2021/09/25 09:37:55;;;;;;;9.65;4.03;;;19.10;64.40;;;;;;4989038;28;20046;-63
2021/09/25 09:40:23;;;;;;;7.28;3.38;;;19.10;64.30;;;;;;4996530;28;20062;-64
2021/09/25 09:42:52;;;;;;;7.50;3.47;;;19.00;64.40;;;;;;4996557;28;20026;-65
2021/09/25 09:45:36;;;;;;;6.30;3.40;;;19.00;64.90;;;;;;4993232;28;20030;-66
2021/09/25 09:48:10;;;;;;;8.68;3.80;;;19.00;64.50;;;;;;4973317;28;20061;-66
2021/09/25 09:50:42;;;;;;;8.35;3.40;;;19.00;64.50;;;;;;4996705;28;20065;-63
2021/09/25 09:53:16;;;;;;;7.30;3.50;;;19.00;64.40;;;;;;4998608;28;20123;-62
2021/09/25 09:55:44;;;;;;;8.77;3.70;;;19.00;64.30;;;;;;4995053;28;20112;-68
2021/09/25 09:58:11;;;;;;;7.43;3.05;;;19.00;64.20;;;;;;4977422;28;20339;-66
2021/09/25 10:00:39;;;;;;;7.13;4.00;;;19.00;64.20;;;;;;4966372;28;20038;-65
2021/09/25 10:03:09;;;;;;;10.13;3.78;;;19.00;64.20;;;;;;4998632;28;20025;-63
2021/09/25 10:05:36;;;;;;;9.77;3.70;;;19.00;64.10;;;;;;4995205;28;20037;-64
2021/09/25 10:08:05;;;;;;;6.53;3.13;;;19.00;64.80;;;;;;4995523;28;20550;-67
2021/09/25 10:10:33;;;;;;;9.48;3.78;;;19.00;64.20;;;;;;4981636;28;20030;-72
2021/09/25 10:13:01;;;;;;;7.13;2.90;;;19.00;64.00;;;;;;4998108;28;20045;-66
2021/09/25 10:15:29;;;;;;;8.07;3.70;;;18.90;63.90;;;;;;4995532;28;21382;-70
2021/09/25 10:17:58;;;;;;;7.28;2.78;;;19.00;63.90;;;;;;4979280;28;20124;-63
2021/09/25 10:20:26;;;;;;;6.45;2.65;;;18.90;63.80;;;;;;4981476;28;20485;-62
2021/09/25 10:22:54;;;;;;;7.70;3.28;;;18.90;63.80;;;;;;4997712;28;20086;-69
2021/09/25 10:25:22;;;;;;;9.20;3.10;;;19.00;63.90;;;;;;4999472;28;20041;-64
2021/09/25 10:27:49;;;;;;;6.97;3.42;;;19.00;63.80;;;;;;4994633;28;20034;-64
2021/09/25 10:30:17;;;;;;;5.95;3.25;;;18.90;63.80;;;;;;4997527;28;20022;-67
2021/09/25 10:32:52;;;;;;;5.70;2.88;;;18.90;63.80;;;;;;4996408;28;20033;-62
2021/09/25 10:35:24;;;;;;;7.28;2.92;;;18.90;63.90;;;;;;4982136;28;20030;-67
2021/09/25 10:38:00;;;;;;;8.07;2.72;;;18.90;63.80;;;;;;4995537;28;20507;-64
2021/09/25 10:40:35;;;;;;;7.65;2.78;;;18.90;63.80;;;;;;4997002;28;20037;-67
2021/09/25 10:43:27;;;;;;;8.02;2.83;;;18.90;63.80;;;;;;4997140;28;20034;-71
2021/09/25 10:45:56;;;;;;;;;;;18.90;63.80;;;;;;4993022;28;20448;-69
2021/09/25 10:48:28;;;;;;;7.10;2.80;;;18.80;63.80;;;;;;4998713;28;20371;-68
2021/09/25 10:51:11;;;;;;;7.57;2.88;;;18.80;63.80;;;;;;4998884;28;20041;-71
2021/09/25 10:53:41;;;;;;;8.13;2.90;;;18.80;63.90;;;;;;4998469;28;20052;-67
2021/09/25 10:56:24;;;;;;;8.05;2.97;;;18.80;63.90;;;;;;4992132;28;20492;-70
2021/09/25 10:59:03;;;;;;;7.90;3.10;;;18.80;63.90;;;;;;4998420;28;20056;-68
2021/09/25 11:01:41;;;;;;;7.20;2.50;;;18.80;64.00;;;;;;4999273;28;20527;-72
2021/09/25 11:04:19;;;;;;;7.90;2.88;;;18.80;64.00;;;;;;4999949;28;20388;-75
2021/09/25 11:06:56;;;;;;;4.72;2.38;;;18.80;64.00;;;;;;4996478;28;20026;-69
2021/09/25 11:09:42;;;;;;;7.05;3.05;;;18.70;64.00;;;;;;4980123;28;20117;-75
2021/09/25 11:12:16;;;;;;;9.73;3.13;;;18.70;64.00;;;;;;4981295;28;20045;-69
2021/09/25 11:14:51;;;;;;;5.68;2.97;;;18.80;64.10;;;;;;5013289;28;20022;-73
2021/09/25 11:17:18;;;;;;;8.15;2.53;;;18.70;64.00;;;;;;5011702;28;20040;-73
2021/09/25 11:19:47;;;;;;;6.30;2.67;;;18.70;64.00;;;;;;5012727;28;20018;-72
2021/09/25 11:22:25;;;;;;;6.43;2.67;;;18.70;64.00;;;;;;4995550;28;20033;-76
2021/09/25 11:25:00;;;;;;;5.50;2.58;;;18.70;64.00;;;;;;5013445;28;20029;-70
2021/09/25 11:27:36;;;;;;;6.28;2.17;;;18.60;64.00;;;;;;5012167;28;20032;-66
2021/09/25 11:30:13;;;;;;;5.05;2.40;;;18.60;64.20;;;;;;5012274;28;20026;-71
2021/09/25 11:32:59;;;;;;;6.05;2.55;;;18.60;64.20;;;;;;5012613;28;20034;-68
2021/09/25 11:35:43;;;;;;;6.45;2.53;;;18.60;64.10;;;;;;5006538;28;20022;-77
2021/09/25 11:38:19;;;;;;;7.55;2.67;;;18.60;64.30;;;;;;5000632;28;20053;-71
2021/09/25 11:40:50;;;;;;;8.07;2.50;;;18.60;64.30;;;;;;4997983;28;20030;-72
2021/09/25 11:43:23;;;;;;;5.75;2.10;;;18.50;64.30;;;;;;5000354;28;20090;-68
2021/09/25 11:45:54;;;;;;;6.53;2.15;;;18.50;64.30;;;;;;4984159;28;20026;-72
2021/09/25 11:48:32;;;;;;;6.05;2.78;;;18.50;64.30;;;;;;4998929;28;20635;-69
2021/09/25 11:51:02;;;;;;;5.38;1.88;;;18.50;64.40;;;;;;4998825;28;20144;-72
2021/09/25 11:53:31;;;;;;;5.95;1.90;;;18.50;64.30;;;;;;4966243;28;20038;-72
2021/09/25 11:56:00;;;;;;;6.80;2.10;;;18.50;64.40;;;;;;4999624;28;20022;-71
2021/09/25 11:58:27;;;;;;;4.75;1.95;;;18.50;64.40;;;;;;4996582;28;20096;-65
2021/09/25 12:00:57;;;;;;;5.43;2.13;;;18.50;64.40;;;;;;4997301;28;20034;-67
2021/09/25 12:03:28;;;;;;;7.90;3.05;;;18.50;64.30;;;;;;4999438;28;20082;-70
2021/09/25 12:05:57;;;;;;;5.43;2.13;;;18.50;64.30;;;;;;4998489;28;20041;-77
2021/09/25 12:08:27;;;;;;;6.35;2.00;;;18.50;64.30;;;;;;4995441;28;20853;-64
2021/09/25 12:10:59;;;;;;;7.70;2.50;;;18.50;64.30;;;;;;4994874;28;20038;-76
2021/09/25 12:13:31;;;;;;;4.30;2.10;;;18.50;64.30;;;;;;4998279;28;20032;-67
2021/09/25 12:16:01;;;;;;;5.97;2.05;;;18.50;64.30;;;;;;4997671;28;20525;-68
2021/09/25 12:18:34;;;;;;;5.40;1.92;;;18.50;64.20;;;;;;5003722;28;20034;-68
2021/09/25 12:21:06;;;;;;;5.38;1.85;;;18.40;64.20;;;;;;5007771;28;20472;-67
2021/09/25 12:23:39;;;;;;;5.50;2.22;;;18.50;64.10;;;;;;5011718;28;20029;-68
2021/09/25 12:26:15;;;;;;;5.63;2.00;;;18.50;64.10;;;;;;5011486;28;20434;-70
2021/09/25 12:28:47;;;;;;;8.80;2.00;;;18.50;64.10;;;;;;4995331;28;20033;-71
2021/09/25 12:31:20;;;;;;;4.80;1.88;;;18.50;64.10;;;;;;5011627;28;20097;-68
2021/09/25 12:34:11;;;;;;;10.57;2.30;;;18.40;64.10;;;;;;5011511;28;20022;-67
2021/09/25 12:36:47;;;;;;;6.68;2.22;;;18.40;64.10;;;;;;4993354;28;20042;-70
2021/09/25 12:39:16;;;;;;;5.13;2.03;;;18.40;64.20;;;;;;5010784;28;20075;-69
2021/09/25 12:41:49;;;;;;;6.60;2.28;;;18.40;64.20;;;;;;5010935;28;20504;-70
2021/09/25 12:44:18;;;;;;;5.20;1.77;;;18.40;64.20;;;;;;4992849;28;20030;-74
2021/09/25 12:47:04;;;;;;;4.65;1.92;;;18.40;64.30;;;;;;5010851;28;20814;-69
2021/09/25 12:49:36;;;;;;;6.53;2.00;;;18.30;64.30;;;;;;5009602;28;20057;-71
2021/09/25 12:52:09;;;;;;;5.82;2.00;;;18.30;64.30;;;;;;5010888;28;20112;-72
2021/09/25 12:54:39;;;;;;;4.38;2.00;;;18.30;64.40;;;;;;5011119;28;20026;-73